Witbank, South Africa
Current Conditions -  °F | °C
As of 8:30 PM on Monday 20 Oct 2014 (Local Time) from FAOR Reporting Station
Clear Clear  
Wind Chill: 75°   Ceiling: Unl
Heat Index: 75°   Visibility: 6mi
Dew Point: 32°   Wind: 9mph
Humidity: 21%   Direction: 310°NW
Pressure: 30.24"   Gusts: NA
Location:  25.86°S, 29.22°E
Report Text: FAOR 201830Z 31008KT CAVOK 24/M00 Q1024 NOSIG
Loading
Personal Weather Stations






























Interactive Weather Map
Tropical Storm Tracking
New forecast layout! Learn more

10-Day Weather Forecast

Advertisements
Track Severe Weather on mobile